Time;durP1;ratioP1;P1;durP2;ratioP2;P2;SDS_P1;SDS_P2;PMS_P1;PMS_P2;Temp;Humidity;BMP_temperature;BMP_pressure;BME280_temperature;BME280_humidity;BME280_pressure;Samples;Min_cycle;Max_cycle;Signal;HPM_P1;HPM_P2
2023/10/19 00:01:18;;;;;;;20.60;13.98;;;8.10;99.90;;;;;;4794231;29;20050;-62
2023/10/19 00:03:44;;;;;;;20.90;14.05;;;8.00;99.90;;;;;;4794218;29;20081;-62
2023/10/19 00:06:11;;;;;;;23.05;15.20;;;8.00;99.90;;;;;;4794260;29;20483;-62
2023/10/19 00:08:46;;;;;;;20.35;14.45;;;8.00;99.90;;;;;;4792327;30;20044;-62
2023/10/19 00:11:22;;;;;;;22.63;14.23;;;8.00;99.90;;;;;;4794009;29;20094;-64
2023/10/19 00:13:51;;;;;;;25.25;15.30;;;8.00;99.90;;;;;;4794224;29;20086;-65
2023/10/19 00:16:17;;;;;;;24.17;15.38;;;8.00;99.90;;;;;;4791562;30;20103;-65
2023/10/19 00:18:49;;;;;;;22.05;15.43;;;7.90;99.90;;;;;;4794349;29;20161;-66
2023/10/19 00:21:23;;;;;;;22.67;15.77;;;8.00;99.90;;;;;;4794053;29;20122;-66
2023/10/19 00:23:51;;;;;;;23.50;15.45;;;7.90;99.90;;;;;;4793660;29;20047;-65
2023/10/19 00:26:19;;;;;;;20.42;15.02;;;7.90;99.90;;;;;;4791474;30;20039;-65
2023/10/19 00:28:52;;;;;;;22.80;15.50;;;8.00;99.90;;;;;;4794016;29;20043;-65
2023/10/19 00:31:20;;;;;;;23.17;15.00;;;7.90;99.90;;;;;;4790736;30;20087;-64
2023/10/19 00:33:46;;;;;;;22.65;15.25;;;7.90;99.90;;;;;;4793347;29;20106;-65
2023/10/19 00:36:15;;;;;;;25.67;15.80;;;7.90;99.90;;;;;;4793748;29;20055;-64
2023/10/19 00:38:56;;;;;;;23.70;15.13;;;7.90;99.90;;;;;;4793957;29;20520;-64
2023/10/19 00:41:30;;;;;;;22.80;16.52;;;8.00;99.90;;;;;;4794538;29;20051;-62
2023/10/19 00:43:59;;;;;;;23.02;16.13;;;7.90;99.90;;;;;;4793542;29;20201;-63
2023/10/19 00:49:23;;;;;;;23.23;15.93;;;7.90;99.90;;;;;;4792880;30;20066;-65
2023/10/19 00:54:36;;;;;;;23.92;15.65;;;7.80;99.90;;;;;;4794282;29;20055;-64
2023/10/19 00:57:08;;;;;;;25.88;16.73;;;7.90;99.90;;;;;;4794722;29;20055;-63
2023/10/19 01:00:35;;;;;;;25.00;16.80;;;7.90;99.90;;;;;;4794252;29;20051;-63
2023/10/19 01:02:29;;;;;;;24.90;17.50;;;7.90;99.90;;;;;;4793510;29;20079;-63
2023/10/19 01:04:59;;;;;;;23.45;16.88;;;7.90;99.90;;;;;;4794405;29;20044;-63
2023/10/19 01:07:29;;;;;;;24.90;17.08;;;7.90;99.90;;;;;;4794299;29;20074;-62
2023/10/19 01:09:59;;;;;;;25.20;17.55;;;8.00;99.90;;;;;;4794564;29;20078;-62
2023/10/19 01:12:32;;;;;;;26.23;17.33;;;7.90;99.90;;;;;;4794357;29;20074;-62
2023/10/19 01:15:23;;;;;;;23.98;16.58;;;7.90;99.90;;;;;;4794078;30;20124;-62
2023/10/19 01:17:53;;;;;;;25.17;17.15;;;7.90;99.90;;;;;;4794431;29;20059;-63
2023/10/19 01:25:34;;;;;;;23.55;16.60;;;7.90;99.90;;;;;;4793842;29;20057;-63
2023/10/19 01:28:08;;;;;;;25.02;18.02;;;7.90;99.90;;;;;;4793889;29;20129;-63
2023/10/19 01:30:33;;;;;;;27.40;17.98;;;7.90;99.90;;;;;;4794143;29;20465;-63
2023/10/19 01:33:00;;;;;;;25.90;17.45;;;7.90;99.90;;;;;;4792563;29;20086;-63
2023/10/19 01:35:26;;;;;;;26.30;16.85;;;7.90;99.90;;;;;;4794105;29;20051;-62
2023/10/19 01:37:52;;;;;;;26.73;18.30;;;8.00;99.90;;;;;;4793724;29;20047;-61
2023/10/19 01:40:20;;;;;;;25.38;17.60;;;7.90;99.90;;;;;;4794224;29;20051;-62
2023/10/19 01:42:46;;;;;;;28.73;18.90;;;8.00;99.90;;;;;;4793976;29;20055;-62
2023/10/19 01:45:14;;;;;;;28.08;18.42;;;7.90;99.90;;;;;;4793617;29;20062;-62
2023/10/19 01:47:40;;;;;;;24.50;17.00;;;7.90;99.90;;;;;;4794152;29;20135;-64
2023/10/19 01:50:13;;;;;;;26.63;18.23;;;7.90;99.90;;;;;;4793774;29;20055;-64
2023/10/19 01:52:39;;;;;;;27.55;18.20;;;7.90;99.90;;;;;;4793714;29;20126;-64
2023/10/19 01:55:07;;;;;;;27.00;19.00;;;7.90;99.90;;;;;;4793288;29;20090;-64
2023/10/19 01:57:34;;;;;;;27.17;18.67;;;7.80;99.90;;;;;;4793917;29;20059;-64
2023/10/19 02:00:09;;;;;;;25.95;18.15;;;7.80;99.90;;;;;;4793931;29;20082;-63
2023/10/19 02:02:35;;;;;;;27.52;18.23;;;7.90;99.90;;;;;;4793396;29;20055;-64
2023/10/19 02:05:04;;;;;;;28.42;18.45;;;7.80;99.90;;;;;;4793674;29;20543;-65
2023/10/19 02:07:30;;;;;;;25.27;17.70;;;7.90;99.90;;;;;;4792265;29;20062;-64
2023/10/19 02:09:56;;;;;;;27.58;18.73;;;7.90;99.90;;;;;;4793616;29;20055;-64
2023/10/19 02:12:22;;;;;;;26.38;17.48;;;7.90;99.90;;;;;;4793317;29;20134;-64
2023/10/19 02:14:48;;;;;;;25.50;17.50;;;7.90;99.90;;;;;;4793508;29;20056;-63
2023/10/19 02:17:14;;;;;;;23.77;16.67;;;7.90;99.90;;;;;;4793865;29;20055;-65
2023/10/19 02:19:40;;;;;;;24.38;17.63;;;7.80;99.90;;;;;;4793261;29;20062;-63
2023/10/19 02:22:11;;;;;;;28.17;17.98;;;7.80;99.90;;;;;;4793374;29;20051;-63
2023/10/19 02:24:38;;;;;;;24.42;17.23;;;7.90;99.90;;;;;;4793081;29;20133;-61
2023/10/19 02:27:04;;;;;;;23.95;16.35;;;7.80;99.90;;;;;;4793727;29;20069;-62
2023/10/19 02:29:31;;;;;;;23.80;17.13;;;7.90;99.90;;;;;;4793484;29;20058;-63
2023/10/19 02:31:57;;;;;;;24.30;17.00;;;7.80;99.90;;;;;;4793433;29;20044;-63
2023/10/19 02:34:23;;;;;;;23.85;16.00;;;7.90;99.90;;;;;;4794765;29;20063;-65
2023/10/19 02:36:49;;;;;;;22.70;16.77;;;7.80;99.90;;;;;;4796397;29;20040;-66
2023/10/19 02:39:17;;;;;;;23.48;16.20;;;7.90;99.90;;;;;;4797028;29;20142;-66
2023/10/19 02:41:50;;;;;;;24.17;16.27;;;7.80;99.90;;;;;;4796426;29;20071;-64
2023/10/19 02:44:22;;;;;;;22.15;15.38;;;7.90;99.90;;;;;;4797193;29;20078;-64
2023/10/19 02:46:57;;;;;;;20.08;14.23;;;7.80;99.90;;;;;;4796776;29;20051;-62
2023/10/19 02:49:25;;;;;;;20.50;14.75;;;7.80;99.90;;;;;;4796579;29;20560;-64
2023/10/19 02:51:52;;;;;;;21.38;14.27;;;7.80;99.90;;;;;;4796756;29;20066;-64
2023/10/19 02:54:22;;;;;;;18.33;13.73;;;7.90;99.90;;;;;;4796515;29;20077;-64
2023/10/19 02:56:53;;;;;;;22.23;15.05;;;7.90;99.90;;;;;;4796613;29;20054;-64
2023/10/19 02:59:23;;;;;;;21.30;14.75;;;7.80;99.90;;;;;;4796402;29;20086;-65
2023/10/19 03:01:51;;;;;;;20.45;14.98;;;7.80;99.90;;;;;;4796354;29;20082;-66
2023/10/19 03:04:17;;;;;;;20.17;14.10;;;7.90;99.90;;;;;;4796789;29;20040;-66
2023/10/19 03:06:43;;;;;;;20.02;13.93;;;8.00;99.90;;;;;;4796174;30;20058;-67
2023/10/19 03:09:22;;;;;;;19.58;13.20;;;7.80;99.90;;;;;;4796549;29;20075;-67
2023/10/19 03:11:52;;;;;;;19.95;13.70;;;7.80;99.90;;;;;;4796201;29;20055;-69
2023/10/19 03:14:19;;;;;;;19.05;12.73;;;7.90;99.90;;;;;;4796481;29;20039;-65
2023/10/19 03:16:45;;;;;;;18.27;12.77;;;7.80;99.90;;;;;;4796266;29;20057;-65
2023/10/19 03:19:12;;;;;;;17.60;12.82;;;7.80;99.90;;;;;;4794750;29;20084;-65
2023/10/19 03:21:42;;;;;;;18.42;12.52;;;7.80;99.90;;;;;;4796538;29;20055;-66
2023/10/19 03:24:59;;;;;;;19.05;12.50;;;7.80;99.90;;;;;;4796191;29;20058;-67
2023/10/19 03:27:00;;;;;;;17.15;11.85;;;7.80;99.90;;;;;;4795499;29;20055;-67
2023/10/19 03:29:31;;;;;;;18.00;13.00;;;7.80;99.90;;;;;;4795992;29;20096;-67
2023/10/19 03:31:58;;;;;;;20.02;12.80;;;7.90;99.90;;;;;;4796119;29;20059;-66
2023/10/19 03:34:24;;;;;;;18.27;12.30;;;7.80;99.90;;;;;;4796063;29;20117;-67
2023/10/19 03:36:50;;;;;;;17.50;12.27;;;8.10;99.90;;;;;;4795722;29;20055;-67
2023/10/19 03:39:17;;;;;;;18.33;12.40;;;7.90;99.90;;;;;;4796097;29;20047;-66
2023/10/19 03:41:44;;;;;;;17.52;12.52;;;7.90;99.90;;;;;;4795955;29;20106;-65
2023/10/19 03:44:24;;;;;;;18.98;13.10;;;7.90;99.90;;;;;;4795648;29;20691;-64
2023/10/19 03:46:53;;;;;;;18.27;11.40;;;7.90;99.90;;;;;;4795964;29;20048;-64
2023/10/19 03:49:19;;;;;;;18.05;11.30;;;7.90;99.90;;;;;;4795642;29;20043;-65
2023/10/19 03:51:58;;;;;;;18.42;11.52;;;7.80;99.90;;;;;;4795544;29;20099;-65
2023/10/19 03:54:28;;;;;;;17.60;11.75;;;7.90;99.90;;;;;;4795467;29;20054;-66
2023/10/19 03:56:56;;;;;;;16.45;12.10;;;7.90;99.90;;;;;;4795598;29;20515;-67
2023/10/19 03:59:23;;;;;;;15.85;11.43;;;7.90;99.90;;;;;;4795524;29;20058;-66
2023/10/19 04:01:49;;;;;;;15.73;11.48;;;7.90;99.90;;;;;;4795650;29;20055;-66
2023/10/19 04:04:16;;;;;;;15.95;10.95;;;7.90;99.90;;;;;;4795564;29;20051;-66
2023/10/19 04:06:57;;;;;;;16.17;11.23;;;7.90;99.90;;;;;;4795264;29;20059;-66
2023/10/19 04:09:28;;;;;;;14.88;11.05;;;7.80;99.90;;;;;;4795360;29;20087;-66
2023/10/19 04:11:57;;;;;;;16.20;11.07;;;8.00;99.90;;;;;;4795239;29;20053;-66
2023/10/19 04:14:23;;;;;;;15.85;11.43;;;7.90;99.90;;;;;;4795334;29;20077;-66
2023/10/19 04:16:49;;;;;;;18.02;12.18;;;7.80;99.90;;;;;;4795118;29;20047;-66
2023/10/19 04:19:15;;;;;;;16.25;11.23;;;8.00;99.90;;;;;;4795015;29;20071;-64
2023/10/19 04:21:46;;;;;;;15.23;10.57;;;7.90;99.90;;;;;;4794019;30;20048;-64
2023/10/19 04:24:13;;;;;;;14.52;10.25;;;7.90;99.90;;;;;;4794919;29;20047;-64
2023/10/19 04:26:40;;;;;;;14.55;10.02;;;7.90;99.90;;;;;;4795036;29;20051;-67
2023/10/19 04:29:17;;;;;;;14.00;10.40;;;7.90;99.90;;;;;;4794723;29;20047;-65
2023/10/19 04:32:24;;;;;;;17.10;10.93;;;7.90;99.90;;;;;;4806891;29;20055;-65
2023/10/19 04:34:36;;;;;;;15.05;10.27;;;7.90;99.90;;;;;;4796580;29;20047;-66
2023/10/19 04:37:03;;;;;;;14.35;10.35;;;7.90;99.90;;;;;;4793271;29;20059;-64
2023/10/19 04:39:30;;;;;;;15.15;10.02;;;8.00;99.90;;;;;;4794873;29;20425;-65
2023/10/19 04:41:56;;;;;;;13.55;9.75;;;8.10;99.90;;;;;;4794426;29;20052;-65
2023/10/19 04:44:22;;;;;;;14.95;10.35;;;8.10;99.90;;;;;;4794990;29;20522;-63
2023/10/19 04:46:48;;;;;;;14.50;10.10;;;8.00;99.90;;;;;;4794686;29;20082;-63
2023/10/19 04:49:14;;;;;;;13.70;10.00;;;8.00;99.90;;;;;;4794664;29;20047;-64
2023/10/19 04:51:40;;;;;;;15.63;10.18;;;8.00;99.90;;;;;;4793525;30;20082;-63
2023/10/19 04:54:08;;;;;;;14.27;9.38;;;8.00;99.90;;;;;;4794376;29;20044;-64
2023/10/19 04:56:35;;;;;;;13.15;9.18;;;8.10;99.90;;;;;;4792157;29;20049;-64
2023/10/19 04:59:04;;;;;;;13.85;9.77;;;8.20;99.90;;;;;;4794122;29;20066;-64
2023/10/19 05:01:33;;;;;;;12.93;9.32;;;8.10;99.90;;;;;;4794581;29;20055;-63
2023/10/19 05:03:59;;;;;;;14.30;9.35;;;8.10;99.90;;;;;;4793319;30;20116;-62
2023/10/19 05:06:25;;;;;;;13.80;8.88;;;8.10;99.90;;;;;;4794325;29;20077;-62
2023/10/19 05:08:52;;;;;;;13.80;9.40;;;8.00;99.90;;;;;;4793094;30;20505;-62
2023/10/19 05:11:18;;;;;;;12.18;8.52;;;8.20;99.90;;;;;;4794161;29;20564;-62
2023/10/19 05:13:43;;;;;;;14.27;8.50;;;8.10;99.90;;;;;;4794272;29;20051;-61
2023/10/19 05:16:09;;;;;;;12.27;8.27;;;8.20;99.90;;;;;;4793960;29;20493;-62
2023/10/19 05:18:35;;;;;;;11.77;8.48;;;8.10;99.90;;;;;;4794398;29;20031;-61
2023/10/19 05:21:00;;;;;;;12.95;8.25;;;8.10;99.90;;;;;;4794311;29;20051;-62
2023/10/19 05:23:27;;;;;;;12.57;8.48;;;8.10;99.90;;;;;;4793975;29;20059;-62
2023/10/19 05:25:59;;;;;;;11.90;7.70;;;8.10;99.90;;;;;;4794178;29;20066;-62
2023/10/19 05:28:25;;;;;;;;;;;8.00;99.90;;;;;;4794455;29;20095;-63
2023/10/19 05:30:51;;;;;;;10.95;7.30;;;8.00;99.90;;;;;;4792586;30;19933;-63
2023/10/19 05:33:23;;;;;;;11.40;7.75;;;8.10;99.90;;;;;;4793560;29;20066;-63
2023/10/19 05:35:49;;;;;;;;;;;8.00;99.90;;;;;;4794739;29;20104;-63
2023/10/19 05:38:15;;;;;;;12.88;7.18;;;8.20;99.90;;;;;;4793729;29;19929;-62
2023/10/19 05:40:43;;;;;;;11.27;7.00;;;8.00;99.90;;;;;;4793671;29;20099;-62
2023/10/19 05:43:09;;;;;;;10.90;6.85;;;8.10;99.90;;;;;;4794064;29;20057;-62
2023/10/19 05:45:36;;;;;;;10.88;6.82;;;8.20;99.90;;;;;;4793412;29;20047;-62
2023/10/19 05:48:03;;;;;;;11.10;7.00;;;8.20;99.90;;;;;;4793349;29;20054;-62
2023/10/19 05:50:29;;;;;;;10.63;6.78;;;8.20;99.90;;;;;;4791547;29;20102;-62
2023/10/19 05:52:55;;;;;;;10.82;7.30;;;8.10;99.90;;;;;;4793920;29;20113;-61
2023/10/19 05:55:21;;;;;;;10.45;6.47;;;8.10;99.90;;;;;;4793170;29;20062;-61
2023/10/19 05:57:47;;;;;;;10.63;6.95;;;8.20;99.90;;;;;;4793596;29;20062;-64
2023/10/19 06:00:13;;;;;;;10.00;6.90;;;8.20;99.90;;;;;;4793843;29;20047;-66
2023/10/19 06:02:43;;;;;;;9.73;6.53;;;8.30;99.90;;;;;;4793592;29;20052;-66
2023/10/19 06:05:09;;;;;;;10.57;6.50;;;8.10;99.90;;;;;;4793284;29;20099;-67
2023/10/19 06:07:35;;;;;;;9.88;6.13;;;8.10;99.90;;;;;;4793307;29;20054;-67
2023/10/19 06:10:04;;;;;;;9.02;6.18;;;8.20;99.90;;;;;;4791084;29;20051;-65
2023/10/19 06:12:31;;;;;;;8.98;5.82;;;8.10;99.90;;;;;;4788029;30;20078;-66
2023/10/19 06:14:57;;;;;;;9.13;5.53;;;8.00;99.90;;;;;;4789068;29;20055;-64
2023/10/19 06:17:23;;;;;;;8.25;5.18;;;8.10;99.90;;;;;;4788062;29;20078;-64
2023/10/19 06:19:49;;;;;;;8.80;5.22;;;8.30;99.90;;;;;;4787474;30;20051;-64
2023/10/19 06:22:16;;;;;;;8.85;5.20;;;8.10;99.90;;;;;;4788780;29;20079;-64
2023/10/19 06:24:43;;;;;;;10.18;5.18;;;8.10;99.90;;;;;;4788184;29;20119;-64
2023/10/19 06:27:10;;;;;;;8.05;4.78;;;8.30;99.90;;;;;;4789359;29;20105;-63
2023/10/19 06:29:35;;;;;;;8.05;5.00;;;8.30;99.90;;;;;;4789548;29;20060;-63
2023/10/19 06:32:02;;;;;;;9.60;5.13;;;8.20;99.90;;;;;;4789521;29;20231;-63
2023/10/19 06:34:28;;;;;;;8.30;4.88;;;8.20;99.90;;;;;;4789351;29;20059;-63
2023/10/19 06:36:54;;;;;;;8.23;4.70;;;8.10;99.90;;;;;;4789179;29;20649;-62
2023/10/19 06:39:21;;;;;;;7.95;4.78;;;8.20;99.90;;;;;;4789439;29;20101;-62
2023/10/19 06:41:47;;;;;;;8.25;4.45;;;8.30;99.90;;;;;;4789254;29;20081;-61
2023/10/19 06:44:13;;;;;;;7.72;4.60;;;8.30;99.90;;;;;;4772983;30;20055;-61
2023/10/19 06:46:39;;;;;;;7.45;4.22;;;8.20;99.90;;;;;;4787592;29;20054;-61
2023/10/19 06:49:05;;;;;;;7.63;4.32;;;8.10;99.90;;;;;;4788170;29;20075;-60
2023/10/19 06:51:33;;;;;;;7.57;4.40;;;8.10;99.90;;;;;;4788751;29;20055;-60
2023/10/19 06:53:59;;;;;;;6.95;3.90;;;8.30;99.90;;;;;;4788526;29;20043;-60
2023/10/19 06:56:24;;;;;;;7.70;4.00;;;8.30;99.90;;;;;;4788602;29;20051;-61
2023/10/19 06:58:50;;;;;;;6.60;3.97;;;8.30;99.90;;;;;;4785989;30;20436;-62
2023/10/19 07:01:17;;;;;;;6.82;3.90;;;8.30;99.90;;;;;;4787502;30;20154;-61
2023/10/19 07:03:43;;;;;;;6.32;3.55;;;8.20;99.90;;;;;;4788564;29;20066;-61
2023/10/19 07:06:13;;;;;;;7.30;4.03;;;8.20;99.90;;;;;;4788891;29;20394;-61
2023/10/19 07:08:40;;;;;;;7.00;3.70;;;8.30;99.90;;;;;;4787899;30;20090;-61
2023/10/19 07:11:07;;;;;;;6.82;3.42;;;8.30;99.90;;;;;;4788590;29;20055;-61
2023/10/19 07:13:33;;;;;;;7.20;3.92;;;8.20;99.90;;;;;;4789364;29;20416;-61
2023/10/19 07:15:59;;;;;;;6.65;3.50;;;8.30;99.90;;;;;;4788694;29;20078;-60
2023/10/19 07:18:25;;;;;;;6.93;3.17;;;8.40;99.90;;;;;;4789390;29;20084;-60
2023/10/19 07:20:53;;;;;;;6.63;3.63;;;8.40;99.90;;;;;;4791683;29;20052;-60
2023/10/19 07:23:21;;;;;;;5.90;3.20;;;8.40;99.90;;;;;;4791892;29;20065;-59
2023/10/19 07:25:52;;;;;;;6.32;3.53;;;8.40;99.90;;;;;;4792065;29;20405;-59
2023/10/19 07:28:19;;;;;;;6.63;3.15;;;8.30;99.90;;;;;;4791989;29;20063;-59
2023/10/19 07:30:49;;;;;;;7.00;3.42;;;8.30;99.90;;;;;;4791936;29;20043;-59
2023/10/19 07:33:17;;;;;;;6.43;3.10;;;8.40;99.90;;;;;;4790675;29;20568;-59
2023/10/19 07:35:46;;;;;;;5.43;2.85;;;8.40;99.90;;;;;;4792145;29;20043;-59
2023/10/19 07:38:13;;;;;;;6.93;3.20;;;8.30;99.90;;;;;;4792542;29;20047;-59
2023/10/19 07:40:39;;;;;;;6.88;3.28;;;8.40;99.90;;;;;;4790897;29;20118;-59
2023/10/19 07:43:04;;;;;;;6.03;3.15;;;8.40;99.90;;;;;;4790937;29;20055;-60
2023/10/19 07:45:31;;;;;;;5.85;2.90;;;8.40;99.90;;;;;;4790648;29;20073;-59
2023/10/19 07:48:06;;;;;;;6.05;2.80;;;8.40;99.90;;;;;;4791109;29;20058;-59
2023/10/19 07:50:35;;;;;;;5.88;3.15;;;8.40;99.90;;;;;;4789043;30;20058;-59
2023/10/19 07:53:02;;;;;;;5.25;2.50;;;8.30;99.90;;;;;;4792070;29;20053;-59
2023/10/19 07:55:28;;;;;;;5.90;2.97;;;8.50;99.90;;;;;;4791405;29;20515;-59
2023/10/19 07:57:54;;;;;;;6.57;3.25;;;8.30;99.90;;;;;;4791592;29;20066;-59
2023/10/19 08:00:21;;;;;;;5.38;2.42;;;8.40;99.90;;;;;;4790684;30;20058;-59
2023/10/19 08:02:47;;;;;;;5.72;2.72;;;8.30;99.90;;;;;;4791685;30;20050;-59
2023/10/19 08:05:14;;;;;;;9.10;3.03;;;8.40;99.90;;;;;;4791699;29;20124;-59
2023/10/19 08:07:42;;;;;;;5.90;3.00;;;8.30;99.90;;;;;;4790310;29;20070;-58
2023/10/19 08:10:10;;;;;;;5.70;2.90;;;8.40;99.90;;;;;;4791555;29;20062;-59
2023/10/19 08:12:37;;;;;;;6.10;2.67;;;8.50;99.90;;;;;;4791794;29;20043;-58
2023/10/19 08:15:03;;;;;;;5.35;2.65;;;8.50;99.90;;;;;;4791483;29;20475;-59
2023/10/19 08:17:30;;;;;;;5.55;2.75;;;8.40;99.90;;;;;;4791490;29;20063;-59
2023/10/19 08:19:56;;;;;;;6.78;2.97;;;8.40;99.90;;;;;;4791307;29;20583;-59
2023/10/19 08:22:23;;;;;;;6.15;2.60;;;8.40;99.90;;;;;;4791214;29;20051;-59
2023/10/19 08:24:49;;;;;;;5.65;2.88;;;8.40;99.90;;;;;;4789352;29;20367;-58
2023/10/19 08:27:17;;;;;;;5.38;2.92;;;8.30;99.90;;;;;;4791330;29;20408;-59
2023/10/19 08:29:43;;;;;;;6.97;2.70;;;8.30;99.90;;;;;;4791160;29;20059;-58
2023/10/19 08:32:09;;;;;;;5.90;2.72;;;8.50;99.90;;;;;;4790222;29;20051;-59
2023/10/19 08:34:39;;;;;;;5.93;3.30;;;8.40;99.90;;;;;;4790966;29;20090;-58
2023/10/19 08:37:05;;;;;;;6.25;3.30;;;8.50;99.90;;;;;;4790678;29;20158;-58
2023/10/19 08:39:38;;;;;;;5.80;3.03;;;8.40;99.90;;;;;;4791354;29;20207;-59
2023/10/19 08:42:05;;;;;;;6.35;3.65;;;8.50;99.90;;;;;;4790676;29;20059;-59
2023/10/19 08:44:32;;;;;;;6.88;3.80;;;8.40;99.90;;;;;;4791307;29;20573;-57
2023/10/19 08:46:59;;;;;;;6.78;3.60;;;8.40;99.90;;;;;;4791074;29;20051;-59
2023/10/19 08:49:26;;;;;;;5.80;3.53;;;8.50;99.90;;;;;;4789059;29;20055;-58
2023/10/19 08:51:53;;;;;;;6.75;3.70;;;8.40;99.90;;;;;;4789700;29;20070;-58
2023/10/19 08:54:19;;;;;;;6.05;3.38;;;8.40;99.90;;;;;;4789689;29;20795;-59
2023/10/19 08:56:47;;;;;;;7.32;3.90;;;8.50;99.90;;;;;;4789687;29;20074;-58
2023/10/19 08:59:15;;;;;;;6.90;3.60;;;8.50;99.90;;;;;;4790205;30;20062;-58
2023/10/19 09:01:43;;;;;;;6.65;3.53;;;8.50;99.90;;;;;;4802821;29;20054;-58
2023/10/19 09:04:10;;;;;;;6.43;3.90;;;8.50;99.90;;;;;;4808874;29;20062;-59
2023/10/19 09:06:44;;;;;;;6.95;3.90;;;8.50;99.90;;;;;;4808174;29;20070;-59
2023/10/19 09:09:19;;;;;;;7.70;4.43;;;8.60;99.90;;;;;;4807487;29;20042;-58
2023/10/19 09:11:46;;;;;;;7.55;4.15;;;8.50;99.90;;;;;;4808565;29;20109;-59
2023/10/19 09:14:13;;;;;;;7.03;4.30;;;8.50;99.90;;;;;;4808893;29;20051;-58
2023/10/19 09:16:57;;;;;;;8.77;4.30;;;8.70;99.90;;;;;;4809750;29;20485;-59
2023/10/19 09:19:43;;;;;;;7.43;4.32;;;8.60;99.90;;;;;;4811705;29;20043;-59
2023/10/19 09:22:18;;;;;;;8.52;4.60;;;8.60;99.90;;;;;;4811862;29;20062;-59
2023/10/19 09:24:55;;;;;;;7.70;4.40;;;8.70;99.90;;;;;;4809423;29;20304;-59
2023/10/19 09:27:21;;;;;;;7.72;4.85;;;8.70;99.90;;;;;;4812062;29;20491;-59
2023/10/19 09:29:48;;;;;;;8.10;4.88;;;8.70;99.90;;;;;;4812310;29;20048;-59
2023/10/19 09:32:14;;;;;;;9.60;5.40;;;8.70;99.90;;;;;;4811832;29;20047;-59
2023/10/19 09:34:43;;;;;;;8.65;5.30;;;8.70;99.90;;;;;;4795095;29;20125;-59
2023/10/19 09:37:10;;;;;;;9.93;5.45;;;8.80;99.90;;;;;;4793805;29;20057;-58
2023/10/19 09:39:35;;;;;;;8.57;4.90;;;8.80;99.90;;;;;;4793708;29;20115;-58
2023/10/19 09:42:10;;;;;;;10.23;5.35;;;8.80;99.90;;;;;;4793337;29;20071;-59
2023/10/19 09:44:43;;;;;;;9.73;5.35;;;8.90;99.90;;;;;;4793989;29;20500;-62
2023/10/19 09:47:23;;;;;;;9.63;5.80;;;8.70;99.90;;;;;;4793976;29;20066;-59
2023/10/19 09:49:50;;;;;;;11.10;5.95;;;8.90;99.90;;;;;;4793691;29;20057;-58
2023/10/19 09:52:17;;;;;;;9.82;5.68;;;8.90;99.90;;;;;;4793477;29;20055;-58
2023/10/19 09:54:59;;;;;;;10.07;5.85;;;8.90;99.90;;;;;;4793385;29;20047;-59
2023/10/19 09:57:34;;;;;;;11.30;5.93;;;8.90;99.90;;;;;;4793783;29;20066;-59
2023/10/19 10:00:14;;;;;;;10.65;5.95;;;8.90;99.90;;;;;;4793909;29;20085;-59
2023/10/19 10:02:42;;;;;;;11.68;6.30;;;8.90;99.90;;;;;;4793217;29;20035;-59
2023/10/19 10:05:42;;;;;;;9.30;5.55;;;8.90;99.90;;;;;;4793452;29;20051;-59
2023/10/19 10:08:16;;;;;;;10.43;6.15;;;8.90;99.90;;;;;;4793681;29;20039;-59
2023/10/19 10:10:46;;;;;;;13.75;6.43;;;9.00;99.90;;;;;;4793327;29;20181;-58
2023/10/19 10:13:41;;;;;;;13.13;6.15;;;8.90;99.90;;;;;;4793210;29;20440;-58
2023/10/19 10:16:07;;;;;;;12.20;6.47;;;9.10;99.90;;;;;;4783901;30;20075;-59
2023/10/19 10:18:37;;;;;;;10.60;6.90;;;9.10;99.90;;;;;;4793649;29;20062;-58
2023/10/19 10:21:26;;;;;;;11.02;6.85;;;9.00;99.90;;;;;;4793399;29;20116;-58
2023/10/19 10:23:57;;;;;;;15.45;7.82;;;9.00;99.90;;;;;;4793160;29;20070;-58
2023/10/19 10:26:25;;;;;;;12.20;6.90;;;8.90;99.90;;;;;;4793184;29;20054;-59
2023/10/19 10:29:23;;;;;;;11.10;6.90;;;9.10;99.90;;;;;;4793030;29;20464;-58
2023/10/19 10:31:49;;;;;;;11.95;6.72;;;9.00;99.90;;;;;;4793125;29;20051;-58
2023/10/19 10:34:34;;;;;;;11.20;6.43;;;9.10;99.90;;;;;;4792832;29;20059;-59
2023/10/19 10:37:05;;;;;;;12.55;7.10;;;9.10;99.90;;;;;;4791446;29;20070;-59
2023/10/19 10:39:31;;;;;;;12.75;6.80;;;9.20;99.90;;;;;;4792151;30;20146;-59
2023/10/19 10:41:57;;;;;;;12.70;7.28;;;9.10;99.90;;;;;;4791094;30;20039;-58
2023/10/19 10:44:55;;;;;;;10.20;6.47;;;9.30;99.90;;;;;;4792719;29;20073;-59
2023/10/19 10:47:24;;;;;;;10.88;7.18;;;9.20;99.90;;;;;;4791690;30;20063;-59
2023/10/19 10:49:57;;;;;;;10.98;6.90;;;9.30;99.90;;;;;;4790132;30;20570;-58
2023/10/19 10:52:34;;;;;;;14.82;7.03;;;9.20;99.90;;;;;;4792535;30;20055;-59
2023/10/19 10:55:11;;;;;;;10.57;6.43;;;9.40;99.90;;;;;;4791359;30;20115;-59
2023/10/19 10:57:37;;;;;;;12.20;6.97;;;9.30;99.90;;;;;;4794570;30;20532;-59
2023/10/19 11:00:19;;;;;;;11.45;6.75;;;9.50;99.90;;;;;;4796346;29;20054;-59
2023/10/19 11:02:47;;;;;;;12.18;6.90;;;9.40;99.90;;;;;;4795982;30;20113;-58
2023/10/19 11:05:14;;;;;;;11.75;7.18;;;9.40;99.90;;;;;;4796327;30;20079;-58
2023/10/19 11:08:18;;;;;;;14.43;6.97;;;9.40;99.90;;;;;;4796258;30;20606;-59
2023/10/19 11:10:46;;;;;;;14.40;6.40;;;9.40;99.90;;;;;;4796072;29;20063;-59
2023/10/19 11:13:13;;;;;;;12.70;7.28;;;9.30;99.90;;;;;;4796675;29;20115;-59
2023/10/19 11:15:50;;;;;;;11.48;7.03;;;9.20;99.90;;;;;;4795843;30;20127;-58
2023/10/19 11:18:28;;;;;;;12.02;7.22;;;9.30;99.90;;;;;;4796623;29;20485;-59
2023/10/19 11:20:55;;;;;;;16.40;8.25;;;9.20;99.90;;;;;;4796142;30;20063;-59
2023/10/19 11:23:54;;;;;;;14.05;7.15;;;9.20;99.90;;;;;;4794760;30;20043;-59
2023/10/19 11:26:24;;;;;;;11.55;7.65;;;9.20;99.90;;;;;;4793893;30;20147;-59
2023/10/19 11:29:00;;;;;;;11.07;8.02;;;9.20;99.90;;;;;;4795946;30;20113;-59
2023/10/19 11:31:27;;;;;;;11.45;7.38;;;9.20;99.90;;;;;;4796467;29;20055;-60
2023/10/19 11:33:58;;;;;;;10.63;7.57;;;9.20;99.90;;;;;;4795956;29;20055;-59
2023/10/19 11:36:24;;;;;;;12.90;7.65;;;9.20;99.90;;;;;;4795444;29;20077;-57
2023/10/19 11:38:52;;;;;;;10.98;6.30;;;9.20;99.90;;;;;;4794612;30;20062;-59
2023/10/19 11:41:18;;;;;;;14.20;7.55;;;9.20;99.90;;;;;;4795750;29;20067;-60
2023/10/19 11:43:49;;;;;;;11.13;6.93;;;9.20;99.90;;;;;;4795795;29;20039;-59
2023/10/19 11:46:15;;;;;;;11.60;6.75;;;9.10;99.90;;;;;;4795520;29;20135;-59
2023/10/19 11:48:44;;;;;;;9.85;6.63;;;9.20;99.90;;;;;;4795974;29;20047;-59
2023/10/19 11:51:14;;;;;;;9.60;6.60;;;9.10;99.90;;;;;;4795812;29;20048;-60
2023/10/19 11:53:42;;;;;;;10.10;6.28;;;9.10;99.90;;;;;;4795197;29;20492;-61
2023/10/19 11:56:11;;;;;;;10.05;6.25;;;9.10;99.90;;;;;;4793950;30;20047;-62
2023/10/19 11:58:39;;;;;;;9.98;6.75;;;9.10;99.90;;;;;;4795322;29;20539;-62
2023/10/19 12:01:08;;;;;;;10.70;7.00;;;9.20;99.90;;;;;;4795782;29;20504;-62
2023/10/19 12:03:37;;;;;;;11.02;7.95;;;9.10;99.90;;;;;;4795136;29;20544;-62
2023/10/19 12:06:10;;;;;;;11.23;7.93;;;9.10;99.90;;;;;;4795104;29;20055;-61
2023/10/19 12:08:36;;;;;;;11.43;8.77;;;9.10;99.90;;;;;;4795526;29;20051;-62
2023/10/19 12:11:03;;;;;;;13.82;10.25;;;9.10;99.90;;;;;;4795014;29;20055;-62
2023/10/19 12:13:31;;;;;;;14.20;10.50;;;9.20;99.90;;;;;;4795286;29;20051;-63
2023/10/19 12:15:57;;;;;;;15.77;12.93;;;9.20;99.90;;;;;;4794757;29;20130;-62
2023/10/19 12:18:26;;;;;;;17.63;14.40;;;9.10;99.90;;;;;;4795749;29;20059;-63
2023/10/19 12:20:56;;;;;;;20.58;15.48;;;9.10;99.90;;;;;;4794861;29;20047;-63
2023/10/19 12:23:23;;;;;;;20.83;15.80;;;9.20;99.90;;;;;;4793828;29;20195;-63
2023/10/19 12:25:49;;;;;;;20.55;14.63;;;9.10;99.90;;;;;;4793668;29;20051;-62
2023/10/19 12:28:15;;;;;;;20.00;15.57;;;9.00;99.90;;;;;;4793731;29;20039;-62
2023/10/19 12:30:41;;;;;;;18.40;14.93;;;9.10;99.90;;;;;;4794692;29;20065;-62
2023/10/19 12:33:11;;;;;;;21.30;15.48;;;9.00;99.90;;;;;;4794216;29;20485;-60
2023/10/19 12:36:39;;;;;;;18.23;13.73;;;9.10;99.90;;;;;;4795015;29;20059;-61
2023/10/19 12:38:33;;;;;;;18.15;13.52;;;9.00;99.90;;;;;;4794107;29;20063;-60
2023/10/19 12:40:59;;;;;;;18.60;13.25;;;9.00;99.90;;;;;;4794347;29;20049;-60
2023/10/19 12:43:30;;;;;;;18.83;13.43;;;9.00;99.90;;;;;;4794631;29;20083;-59
2023/10/19 12:45:57;;;;;;;18.38;12.32;;;9.00;99.90;;;;;;4792953;29;20059;-60
2023/10/19 12:48:30;;;;;;;19.25;12.20;;;8.90;99.90;;;;;;4794914;29;20087;-59
2023/10/19 12:50:55;;;;;;;17.50;12.43;;;9.00;99.90;;;;;;4793983;29;20051;-59
2023/10/19 12:53:24;;;;;;;18.20;12.15;;;9.10;99.90;;;;;;4794103;30;20150;-59
2023/10/19 12:55:50;;;;;;;17.63;12.23;;;9.00;99.90;;;;;;4794461;29;20173;-59
2023/10/19 12:58:19;;;;;;;18.67;11.82;;;9.10;99.90;;;;;;4794360;29;20059;-60
2023/10/19 13:00:45;;;;;;;15.38;11.20;;;9.00;99.90;;;;;;4794643;29;20043;-59
2023/10/19 13:03:15;;;;;;;15.70;10.65;;;9.00;99.90;;;;;;4794097;30;20107;-59
2023/10/19 13:05:42;;;;;;;15.27;10.35;;;8.90;99.90;;;;;;4792817;30;20062;-59
2023/10/19 13:08:08;;;;;;;14.88;10.35;;;9.00;99.90;;;;;;4794266;29;20528;-59